sensor_id;sensor_type;location;lat;lon;timestamp;temperature;humidity
27314;DHT22;14800;48.174;9.798;2022-07-21T00:02:07;22.80;73.70
27314;DHT22;14800;48.174;9.798;2022-07-21T00:04:33;22.70;73.70
27314;DHT22;14800;48.174;9.798;2022-07-21T00:06:59;22.60;73.90
27314;DHT22;14800;48.174;9.798;2022-07-21T00:09:25;22.60;74.00
27314;DHT22;14800;48.174;9.798;2022-07-21T00:11:51;22.60;74.10
27314;DHT22;14800;48.174;9.798;2022-07-21T00:14:16;22.60;74.40
27314;DHT22;14800;48.174;9.798;2022-07-21T00:16:42;22.50;74.40
27314;DHT22;14800;48.174;9.798;2022-07-21T00:19:08;22.50;75.30
27314;DHT22;14800;48.174;9.798;2022-07-21T00:21:35;22.50;74.30
27314;DHT22;14800;48.174;9.798;2022-07-21T00:24:01;22.40;74.40
27314;DHT22;14800;48.174;9.798;2022-07-21T00:26:27;22.40;74.40
27314;DHT22;14800;48.174;9.798;2022-07-21T00:28:52;22.40;74.40
27314;DHT22;14800;48.174;9.798;2022-07-21T00:31:18;22.40;75.40
27314;DHT22;14800;48.174;9.798;2022-07-21T00:33:43;22.40;74.90
27314;DHT22;14800;48.174;9.798;2022-07-21T00:36:09;22.40;75.00
27314;DHT22;14800;48.174;9.798;2022-07-21T00:38:35;22.30;75.10
27314;DHT22;14800;48.174;9.798;2022-07-21T00:41:01;22.30;75.20
27314;DHT22;14800;48.174;9.798;2022-07-21T00:43:26;22.30;75.40
27314;DHT22;14800;48.174;9.798;2022-07-21T00:45:53;22.30;75.70
27314;DHT22;14800;48.174;9.798;2022-07-21T00:48:19;22.30;75.90
27314;DHT22;14800;48.174;9.798;2022-07-21T00:50:45;22.30;75.80
27314;DHT22;14800;48.174;9.798;2022-07-21T00:53:11;22.30;75.90
27314;DHT22;14800;48.174;9.798;2022-07-21T00:55:36;22.30;76.10
27314;DHT22;14800;48.174;9.798;2022-07-21T00:58:02;22.30;76.30
27314;DHT22;14800;48.174;9.798;2022-07-21T01:00:29;22.40;76.50
27314;DHT22;14800;48.174;9.798;2022-07-21T01:02:57;22.20;76.50
27314;DHT22;14800;48.174;9.798;2022-07-21T01:05:23;22.20;76.60
27314;DHT22;14800;48.174;9.798;2022-07-21T01:07:51;22.20;76.40
27314;DHT22;14800;48.174;9.798;2022-07-21T01:10:20;22.30;77.70
27314;DHT22;14800;48.174;9.798;2022-07-21T01:12:46;22.30;77.00
27314;DHT22;14800;48.174;9.798;2022-07-21T01:15:13;22.30;76.60
27314;DHT22;14800;48.174;9.798;2022-07-21T01:17:41;22.40;76.60
27314;DHT22;14800;48.174;9.798;2022-07-21T01:20:09;22.40;76.60
27314;DHT22;14800;48.174;9.798;2022-07-21T01:22:38;22.40;76.80
27314;DHT22;14800;48.174;9.798;2022-07-21T01:25:05;22.40;76.80
27314;DHT22;14800;48.174;9.798;2022-07-21T01:27:31;22.40;76.80
27314;DHT22;14800;48.174;9.798;2022-07-21T01:29:57;22.40;76.90
27314;DHT22;14800;48.174;9.798;2022-07-21T01:32:23;22.50;77.00
27314;DHT22;14800;48.174;9.798;2022-07-21T01:34:49;22.50;76.80
27314;DHT22;14800;48.174;9.798;2022-07-21T01:37:15;22.60;76.70
27314;DHT22;14800;48.174;9.798;2022-07-21T01:39:47;22.60;76.50
27314;DHT22;14800;48.174;9.798;2022-07-21T01:42:31;22.60;76.50
27314;DHT22;14800;48.174;9.798;2022-07-21T01:44:56;22.60;76.00
27314;DHT22;14800;48.174;9.798;2022-07-21T01:47:22;22.60;76.00
27314;DHT22;14800;48.174;9.798;2022-07-21T01:49:49;22.60;75.90
27314;DHT22;14800;48.174;9.798;2022-07-21T01:52:14;22.60;76.10
27314;DHT22;14800;48.174;9.798;2022-07-21T01:54:40;22.60;76.00
27314;DHT22;14800;48.174;9.798;2022-07-21T01:57:05;22.60;76.10
27314;DHT22;14800;48.174;9.798;2022-07-21T01:59:31;22.60;76.20
27314;DHT22;14800;48.174;9.798;2022-07-21T02:01:57;22.60;76.30
27314;DHT22;14800;48.174;9.798;2022-07-21T02:04:22;22.60;76.30
27314;DHT22;14800;48.174;9.798;2022-07-21T02:06:48;22.70;76.40
27314;DHT22;14800;48.174;9.798;2022-07-21T02:09:13;22.70;76.50
27314;DHT22;14800;48.174;9.798;2022-07-21T02:11:39;22.70;76.50
27314;DHT22;14800;48.174;9.798;2022-07-21T02:14:05;22.70;76.40
27314;DHT22;14800;48.174;9.798;2022-07-21T02:16:31;22.70;76.50
27314;DHT22;14800;48.174;9.798;2022-07-21T02:18:56;22.70;76.50
27314;DHT22;14800;48.174;9.798;2022-07-21T02:21:22;22.70;76.40
27314;DHT22;14800;48.174;9.798;2022-07-21T02:23:47;22.70;76.30
27314;DHT22;14800;48.174;9.798;2022-07-21T02:26:13;22.70;76.30
27314;DHT22;14800;48.174;9.798;2022-07-21T02:28:39;22.70;76.50
27314;DHT22;14800;48.174;9.798;2022-07-21T02:31:07;22.70;76.70
27314;DHT22;14800;48.174;9.798;2022-07-21T02:33:32;22.60;76.70
27314;DHT22;14800;48.174;9.798;2022-07-21T02:35:58;22.60;76.80
27314;DHT22;14800;48.174;9.798;2022-07-21T02:38:24;22.60;77.10
27314;DHT22;14800;48.174;9.798;2022-07-21T02:40:50;22.60;76.90
27314;DHT22;14800;48.174;9.798;2022-07-21T02:43:16;22.60;77.00
27314;DHT22;14800;48.174;9.798;2022-07-21T02:45:41;22.60;77.30
27314;DHT22;14800;48.174;9.798;2022-07-21T02:48:10;22.60;77.50
27314;DHT22;14800;48.174;9.798;2022-07-21T02:50:39;22.50;77.80
27314;DHT22;14800;48.174;9.798;2022-07-21T02:53:07;22.50;78.00
27314;DHT22;14800;48.174;9.798;2022-07-21T02:55:34;22.40;78.40
27314;DHT22;14800;48.174;9.798;2022-07-21T03:00:34;22.30;79.60
27314;DHT22;14800;48.174;9.798;2022-07-21T03:03:00;22.30;78.90
27314;DHT22;14800;48.174;9.798;2022-07-21T03:05:25;22.30;79.10
27314;DHT22;14800;48.174;9.798;2022-07-21T03:07:51;22.30;79.20
27314;DHT22;14800;48.174;9.798;2022-07-21T03:10:17;22.30;79.30
27314;DHT22;14800;48.174;9.798;2022-07-21T03:12:42;22.30;79.30
27314;DHT22;14800;48.174;9.798;2022-07-21T03:15:08;22.30;79.40
27314;DHT22;14800;48.174;9.798;2022-07-21T03:17:34;22.40;79.40
27314;DHT22;14800;48.174;9.798;2022-07-21T03:20:00;22.40;79.40
27314;DHT22;14800;48.174;9.798;2022-07-21T03:22:26;22.40;79.40
27314;DHT22;14800;48.174;9.798;2022-07-21T03:24:51;22.40;79.20
27314;DHT22;14800;48.174;9.798;2022-07-21T03:27:17;22.30;79.20
27314;DHT22;14800;48.174;9.798;2022-07-21T03:29:43;22.50;78.90
27314;DHT22;14800;48.174;9.798;2022-07-21T03:32:09;22.50;79.00
27314;DHT22;14800;48.174;9.798;2022-07-21T03:34:35;22.50;78.90
27314;DHT22;14800;48.174;9.798;2022-07-21T03:37:00;22.50;79.70
27314;DHT22;14800;48.174;9.798;2022-07-21T03:39:26;22.60;78.90
27314;DHT22;14800;48.174;9.798;2022-07-21T03:41:52;22.60;78.90
27314;DHT22;14800;48.174;9.798;2022-07-21T03:44:17;22.60;78.80
27314;DHT22;14800;48.174;9.798;2022-07-21T03:46:43;22.70;78.80
27314;DHT22;14800;48.174;9.798;2022-07-21T03:49:09;22.60;78.60
27314;DHT22;14800;48.174;9.798;2022-07-21T03:51:34;22.60;78.60
27314;DHT22;14800;48.174;9.798;2022-07-21T03:54:00;22.60;78.70
27314;DHT22;14800;48.174;9.798;2022-07-21T03:56:27;22.60;78.60
27314;DHT22;14800;48.174;9.798;2022-07-21T03:58:53;22.70;79.50
27314;DHT22;14800;48.174;9.798;2022-07-21T04:01:18;22.70;78.60
27314;DHT22;14800;48.174;9.798;2022-07-21T04:03:44;22.70;78.60
27314;DHT22;14800;48.174;9.798;2022-07-21T04:06:09;22.70;78.40
27314;DHT22;14800;48.174;9.798;2022-07-21T04:08:37;22.70;78.30
27314;DHT22;14800;48.174;9.798;2022-07-21T04:11:02;22.70;78.20
27314;DHT22;14800;48.174;9.798;2022-07-21T04:13:28;22.70;78.20
27314;DHT22;14800;48.174;9.798;2022-07-21T04:15:54;22.70;78.40
27314;DHT22;14800;48.174;9.798;2022-07-21T04:18:19;22.70;78.40
27314;DHT22;14800;48.174;9.798;2022-07-21T04:20:45;22.70;78.40
27314;DHT22;14800;48.174;9.798;2022-07-21T04:23:10;22.70;78.60
27314;DHT22;14800;48.174;9.798;2022-07-21T04:25:36;22.60;78.60
27314;DHT22;14800;48.174;9.798;2022-07-21T04:28:04;22.70;78.60
27314;DHT22;14800;48.174;9.798;2022-07-21T04:30:30;22.60;78.60
27314;DHT22;14800;48.174;9.798;2022-07-21T04:32:56;22.60;78.70
27314;DHT22;14800;48.174;9.798;2022-07-21T04:35:22;22.60;78.80
27314;DHT22;14800;48.174;9.798;2022-07-21T04:37:48;22.70;78.90
27314;DHT22;14800;48.174;9.798;2022-07-21T04:40:14;22.70;79.10
27314;DHT22;14800;48.174;9.798;2022-07-21T04:42:41;22.70;79.10
27314;DHT22;14800;48.174;9.798;2022-07-21T04:45:08;22.70;79.30
27314;DHT22;14800;48.174;9.798;2022-07-21T04:47:42;22.70;79.30
27314;DHT22;14800;48.174;9.798;2022-07-21T04:50:09;22.80;80.50
27314;DHT22;14800;48.174;9.798;2022-07-21T04:52:35;22.70;79.10
27314;DHT22;14800;48.174;9.798;2022-07-21T04:55:00;22.80;79.10
27314;DHT22;14800;48.174;9.798;2022-07-21T04:57:26;22.80;79.10
27314;DHT22;14800;48.174;9.798;2022-07-21T04:59:52;22.80;79.10
27314;DHT22;14800;48.174;9.798;2022-07-21T05:02:17;22.80;79.30
27314;DHT22;14800;48.174;9.798;2022-07-21T05:04:43;22.80;79.30
27314;DHT22;14800;48.174;9.798;2022-07-21T05:07:09;22.90;79.30
27314;DHT22;14800;48.174;9.798;2022-07-21T05:09:35;22.90;79.30
27314;DHT22;14800;48.174;9.798;2022-07-21T05:12:00;22.90;79.30
27314;DHT22;14800;48.174;9.798;2022-07-21T05:14:26;22.90;79.40
27314;DHT22;14800;48.174;9.798;2022-07-21T05:16:51;22.90;79.40
27314;DHT22;14800;48.174;9.798;2022-07-21T05:19:17;22.90;79.40
27314;DHT22;14800;48.174;9.798;2022-07-21T05:21:43;23.00;79.40
27314;DHT22;14800;48.174;9.798;2022-07-21T05:24:09;22.90;79.40
27314;DHT22;14800;48.174;9.798;2022-07-21T05:26:35;22.90;79.60
27314;DHT22;14800;48.174;9.798;2022-07-21T05:29:00;22.90;79.90
27314;DHT22;14800;48.174;9.798;2022-07-21T05:31:26;22.90;79.90
27314;DHT22;14800;48.174;9.798;2022-07-21T05:33:51;22.90;80.00
27314;DHT22;14800;48.174;9.798;2022-07-21T05:36:17;22.80;79.90
27314;DHT22;14800;48.174;9.798;2022-07-21T05:38:43;22.70;80.40
27314;DHT22;14800;48.174;9.798;2022-07-21T05:41:09;22.60;80.20
27314;DHT22;14800;48.174;9.798;2022-07-21T05:43:35;22.60;80.50
27314;DHT22;14800;48.174;9.798;2022-07-21T05:46:00;22.60;80.60
27314;DHT22;14800;48.174;9.798;2022-07-21T05:48:26;22.40;81.00
27314;DHT22;14800;48.174;9.798;2022-07-21T05:50:52;22.40;81.20
27314;DHT22;14800;48.174;9.798;2022-07-21T05:53:17;22.40;81.30
27314;DHT22;14800;48.174;9.798;2022-07-21T05:55:43;22.30;81.20
27314;DHT22;14800;48.174;9.798;2022-07-21T05:58:08;22.30;81.30
27314;DHT22;14800;48.174;9.798;2022-07-21T06:00:34;22.30;81.30
27314;DHT22;14800;48.174;9.798;2022-07-21T06:02:59;22.30;81.40
27314;DHT22;14800;48.174;9.798;2022-07-21T06:05:25;22.40;81.40
27314;DHT22;14800;48.174;9.798;2022-07-21T06:07:51;22.40;80.90
27314;DHT22;14800;48.174;9.798;2022-07-21T06:10:16;22.50;80.70
27314;DHT22;14800;48.174;9.798;2022-07-21T06:12:43;22.50;80.50
27314;DHT22;14800;48.174;9.798;2022-07-21T06:15:09;22.60;80.30
27314;DHT22;14800;48.174;9.798;2022-07-21T06:17:43;22.60;79.80
27314;DHT22;14800;48.174;9.798;2022-07-21T06:20:09;22.70;79.40
27314;DHT22;14800;48.174;9.798;2022-07-21T06:22:36;22.70;79.10
27314;DHT22;14800;48.174;9.798;2022-07-21T06:25:02;22.70;78.90
27314;DHT22;14800;48.174;9.798;2022-07-21T06:27:28;22.80;78.50
27314;DHT22;14800;48.174;9.798;2022-07-21T06:29:54;22.80;78.20
27314;DHT22;14800;48.174;9.798;2022-07-21T06:32:22;22.90;78.00
27314;DHT22;14800;48.174;9.798;2022-07-21T06:34:48;22.90;77.80
27314;DHT22;14800;48.174;9.798;2022-07-21T06:37:14;22.90;77.70
27314;DHT22;14800;48.174;9.798;2022-07-21T06:39:39;23.00;77.50
27314;DHT22;14800;48.174;9.798;2022-07-21T06:42:07;23.00;77.40
27314;DHT22;14800;48.174;9.798;2022-07-21T06:44:33;23.10;76.80
27314;DHT22;14800;48.174;9.798;2022-07-21T06:46:58;23.10;76.50
27314;DHT22;14800;48.174;9.798;2022-07-21T06:49:30;23.20;76.20
27314;DHT22;14800;48.174;9.798;2022-07-21T06:51:56;23.20;75.90
27314;DHT22;14800;48.174;9.798;2022-07-21T06:54:21;23.20;75.80
27314;DHT22;14800;48.174;9.798;2022-07-21T06:56:47;23.30;75.70
27314;DHT22;14800;48.174;9.798;2022-07-21T06:59:12;23.30;75.60
27314;DHT22;14800;48.174;9.798;2022-07-21T07:01:38;23.30;75.30
27314;DHT22;14800;48.174;9.798;2022-07-21T07:04:04;23.30;75.10
27314;DHT22;14800;48.174;9.798;2022-07-21T07:06:29;23.40;75.00
27314;DHT22;14800;48.174;9.798;2022-07-21T07:08:55;23.40;75.10
27314;DHT22;14800;48.174;9.798;2022-07-21T07:11:21;23.40;74.70
27314;DHT22;14800;48.174;9.798;2022-07-21T07:13:47;23.30;74.80
27314;DHT22;14800;48.174;9.798;2022-07-21T07:16:13;23.40;75.10
27314;DHT22;14800;48.174;9.798;2022-07-21T07:18:39;23.40;74.90
27314;DHT22;14800;48.174;9.798;2022-07-21T07:21:04;23.40;75.00
27314;DHT22;14800;48.174;9.798;2022-07-21T07:23:30;23.40;75.30
27314;DHT22;14800;48.174;9.798;2022-07-21T07:25:55;23.50;74.60
27314;DHT22;14800;48.174;9.798;2022-07-21T07:28:21;23.60;74.20
27314;DHT22;14800;48.174;9.798;2022-07-21T07:30:47;23.60;73.70
27314;DHT22;14800;48.174;9.798;2022-07-21T07:33:14;23.70;73.50
27314;DHT22;14800;48.174;9.798;2022-07-21T07:35:39;23.70;72.60
27314;DHT22;14800;48.174;9.798;2022-07-21T07:38:05;23.80;71.80
27314;DHT22;14800;48.174;9.798;2022-07-21T07:40:31;23.80;72.00
27314;DHT22;14800;48.174;9.798;2022-07-21T07:42:57;23.80;71.40
27314;DHT22;14800;48.174;9.798;2022-07-21T07:45:22;23.80;71.00
27314;DHT22;14800;48.174;9.798;2022-07-21T07:47:48;23.80;71.80
27314;DHT22;14800;48.174;9.798;2022-07-21T07:50:14;23.80;72.00
27314;DHT22;14800;48.174;9.798;2022-07-21T07:52:41;23.80;71.90
27314;DHT22;14800;48.174;9.798;2022-07-21T07:55:08;23.80;71.90
27314;DHT22;14800;48.174;9.798;2022-07-21T07:57:36;23.80;71.40
27314;DHT22;14800;48.174;9.798;2022-07-21T08:00:07;23.80;71.20
27314;DHT22;14800;48.174;9.798;2022-07-21T08:02:34;23.90;69.70
27314;DHT22;14800;48.174;9.798;2022-07-21T08:05:00;23.80;70.00
27314;DHT22;14800;48.174;9.798;2022-07-21T08:07:25;23.90;70.00
27314;DHT22;14800;48.174;9.798;2022-07-21T08:09:51;23.90;69.20
27314;DHT22;14800;48.174;9.798;2022-07-21T08:12:17;23.90;68.60
27314;DHT22;14800;48.174;9.798;2022-07-21T08:14:42;23.90;68.60
27314;DHT22;14800;48.174;9.798;2022-07-21T08:17:08;23.90;68.70
27314;DHT22;14800;48.174;9.798;2022-07-21T08:19:34;23.90;68.60
27314;DHT22;14800;48.174;9.798;2022-07-21T08:21:59;23.90;68.80
27314;DHT22;14800;48.174;9.798;2022-07-21T08:24:26;23.90;68.10
27314;DHT22;14800;48.174;9.798;2022-07-21T08:26:52;24.00;67.60
27314;DHT22;14800;48.174;9.798;2022-07-21T08:29:18;24.00;67.40
27314;DHT22;14800;48.174;9.798;2022-07-21T08:31:44;24.10;67.60
27314;DHT22;14800;48.174;9.798;2022-07-21T08:34:09;24.10;67.10
27314;DHT22;14800;48.174;9.798;2022-07-21T08:36:35;24.20;67.60
27314;DHT22;14800;48.174;9.798;2022-07-21T08:39:01;24.20;67.30
27314;DHT22;14800;48.174;9.798;2022-07-21T08:41:26;24.40;66.80
27314;DHT22;14800;48.174;9.798;2022-07-21T08:43:52;24.40;66.30
27314;DHT22;14800;48.174;9.798;2022-07-21T08:46:21;24.50;64.90
27314;DHT22;14800;48.174;9.798;2022-07-21T08:48:47;24.60;65.00
27314;DHT22;14800;48.174;9.798;2022-07-21T08:51:13;24.70;64.60
27314;DHT22;14800;48.174;9.798;2022-07-21T08:53:44;24.80;64.00
27314;DHT22;14800;48.174;9.798;2022-07-21T08:56:10;24.90;63.40
27314;DHT22;14800;48.174;9.798;2022-07-21T08:58:35;25.00;63.80
27314;DHT22;14800;48.174;9.798;2022-07-21T09:01:02;25.10;63.80
27314;DHT22;14800;48.174;9.798;2022-07-21T09:03:28;25.20;63.60
27314;DHT22;14800;48.174;9.798;2022-07-21T09:06:04;25.40;63.40
27314;DHT22;14800;48.174;9.798;2022-07-21T09:08:37;25.50;62.30
27314;DHT22;14800;48.174;9.798;2022-07-21T09:13:35;25.70;61.00
27314;DHT22;14800;48.174;9.798;2022-07-21T09:16:01;25.80;61.90
27314;DHT22;14800;48.174;9.798;2022-07-21T09:18:26;25.90;62.50
27314;DHT22;14800;48.174;9.798;2022-07-21T09:20:53;26.00;62.40
27314;DHT22;14800;48.174;9.798;2022-07-21T09:23:22;26.10;61.90
27314;DHT22;14800;48.174;9.798;2022-07-21T09:25:51;26.20;61.10
27314;DHT22;14800;48.174;9.798;2022-07-21T09:28:26;26.30;61.10
27314;DHT22;14800;48.174;9.798;2022-07-21T09:33:29;26.60;58.40
27314;DHT22;14800;48.174;9.798;2022-07-21T09:36:04;26.70;59.40
27314;DHT22;14800;48.174;9.798;2022-07-21T09:38:31;26.70;58.40
27314;DHT22;14800;48.174;9.798;2022-07-21T09:41:15;26.80;58.70
27314;DHT22;14800;48.174;9.798;2022-07-21T09:43:42;26.80;57.50
27314;DHT22;14800;48.174;9.798;2022-07-21T09:46:14;26.80;58.20
27314;DHT22;14800;48.174;9.798;2022-07-21T09:48:41;26.80;57.20
27314;DHT22;14800;48.174;9.798;2022-07-21T09:54:07;26.90;56.50
27314;DHT22;14800;48.174;9.798;2022-07-21T09:56:38;26.90;56.60
27314;DHT22;14800;48.174;9.798;2022-07-21T09:59:06;27.00;57.60
27314;DHT22;14800;48.174;9.798;2022-07-21T10:01:32;27.00;57.70
27314;DHT22;14800;48.174;9.798;2022-07-21T10:03:59;27.00;57.70
27314;DHT22;14800;48.174;9.798;2022-07-21T10:06:30;27.10;57.20
27314;DHT22;14800;48.174;9.798;2022-07-21T10:08:57;27.20;57.10
27314;DHT22;14800;48.174;9.798;2022-07-21T10:11:24;27.20;56.70
27314;DHT22;14800;48.174;9.798;2022-07-21T10:13:50;27.20;56.60
27314;DHT22;14800;48.174;9.798;2022-07-21T10:16:16;27.20;56.80
27314;DHT22;14800;48.174;9.798;2022-07-21T10:19:27;27.20;56.60
27314;DHT22;14800;48.174;9.798;2022-07-21T10:24:43;27.20;56.20
27314;DHT22;14800;48.174;9.798;2022-07-21T10:27:12;27.30;55.80
27314;DHT22;14800;48.174;9.798;2022-07-21T10:32:23;27.30;55.90
27314;DHT22;14800;48.174;9.798;2022-07-21T10:34:50;27.30;56.30
27314;DHT22;14800;48.174;9.798;2022-07-21T10:45:39;27.40;54.90
27314;DHT22;14800;48.174;9.798;2022-07-21T10:48:07;27.50;55.20
27314;DHT22;14800;48.174;9.798;2022-07-21T10:50:38;27.60;55.50
27314;DHT22;14800;48.174;9.798;2022-07-21T10:53:15;27.70;55.20
27314;DHT22;14800;48.174;9.798;2022-07-21T10:55:52;27.70;54.60
27314;DHT22;14800;48.174;9.798;2022-07-21T10:58:25;27.90;54.70
27314;DHT22;14800;48.174;9.798;2022-07-21T11:01:03;28.00;54.50
27314;DHT22;14800;48.174;9.798;2022-07-21T11:03:36;28.10;53.90
27314;DHT22;14800;48.174;9.798;2022-07-21T11:08:39;28.20;54.00
27314;DHT22;14800;48.174;9.798;2022-07-21T11:13:57;28.30;53.90
27314;DHT22;14800;48.174;9.798;2022-07-21T11:16:23;28.30;53.30
27314;DHT22;14800;48.174;9.798;2022-07-21T11:19:43;28.30;53.60
27314;DHT22;14800;48.174;9.798;2022-07-21T11:24:50;28.40;53.20
27314;DHT22;14800;48.174;9.798;2022-07-21T11:27:18;28.30;53.10
27314;DHT22;14800;48.174;9.798;2022-07-21T11:29:45;28.30;53.00
27314;DHT22;14800;48.174;9.798;2022-07-21T11:32:12;28.30;52.50
27314;DHT22;14800;48.174;9.798;2022-07-21T11:37:05;28.30;51.80
27314;DHT22;14800;48.174;9.798;2022-07-21T11:39:31;28.30;51.20
27314;DHT22;14800;48.174;9.798;2022-07-21T11:42:06;28.30;50.90
27314;DHT22;14800;48.174;9.798;2022-07-21T11:44:32;28.20;51.00
27314;DHT22;14800;48.174;9.798;2022-07-21T11:47:00;28.20;51.50
27314;DHT22;14800;48.174;9.798;2022-07-21T11:49:26;28.30;51.20
27314;DHT22;14800;48.174;9.798;2022-07-21T11:52:07;28.30;51.70
27314;DHT22;14800;48.174;9.798;2022-07-21T11:54:47;28.30;51.50
27314;DHT22;14800;48.174;9.798;2022-07-21T11:57:15;28.30;51.60
27314;DHT22;14800;48.174;9.798;2022-07-21T11:59:43;28.40;52.00
27314;DHT22;14800;48.174;9.798;2022-07-21T12:04:58;28.40;51.30
27314;DHT22;14800;48.174;9.798;2022-07-21T12:10:23;28.50;48.50
27314;DHT22;14800;48.174;9.798;2022-07-21T12:12:50;28.50;49.60
27314;DHT22;14800;48.174;9.798;2022-07-21T12:15:24;28.50;49.40
27314;DHT22;14800;48.174;9.798;2022-07-21T12:18:00;28.50;49.00
27314;DHT22;14800;48.174;9.798;2022-07-21T12:20:38;28.50;49.20
27314;DHT22;14800;48.174;9.798;2022-07-21T12:25:46;28.60;48.90
27314;DHT22;14800;48.174;9.798;2022-07-21T12:28:12;28.60;49.40
27314;DHT22;14800;48.174;9.798;2022-07-21T12:30:39;28.70;49.60
27314;DHT22;14800;48.174;9.798;2022-07-21T12:33:17;28.70;49.30
27314;DHT22;14800;48.174;9.798;2022-07-21T12:35:55;28.70;49.60
27314;DHT22;14800;48.174;9.798;2022-07-21T12:38:22;28.80;50.10
27314;DHT22;14800;48.174;9.798;2022-07-21T12:40:49;28.90;49.10
27314;DHT22;14800;48.174;9.798;2022-07-21T12:43:21;29.00;48.80
27314;DHT22;14800;48.174;9.798;2022-07-21T12:45:58;29.00;48.60
27314;DHT22;14800;48.174;9.798;2022-07-21T12:48:30;29.10;48.70
27314;DHT22;14800;48.174;9.798;2022-07-21T12:51:05;29.20;48.10
27314;DHT22;14800;48.174;9.798;2022-07-21T12:53:36;29.20;48.40
27314;DHT22;14800;48.174;9.798;2022-07-21T12:56:02;29.30;48.90
27314;DHT22;14800;48.174;9.798;2022-07-21T12:58:28;29.40;49.20
27314;DHT22;14800;48.174;9.798;2022-07-21T13:00:55;29.50;49.20
27314;DHT22;14800;48.174;9.798;2022-07-21T13:03:20;29.50;48.40
27314;DHT22;14800;48.174;9.798;2022-07-21T13:05:46;29.60;47.60
27314;DHT22;14800;48.174;9.798;2022-07-21T13:08:12;29.70;48.10
27314;DHT22;14800;48.174;9.798;2022-07-21T13:10:38;29.80;47.90
27314;DHT22;14800;48.174;9.798;2022-07-21T13:13:04;29.80;48.00
27314;DHT22;14800;48.174;9.798;2022-07-21T13:15:29;29.80;46.40
27314;DHT22;14800;48.174;9.798;2022-07-21T13:17:55;29.90;46.50
27314;DHT22;14800;48.174;9.798;2022-07-21T13:20:20;29.80;46.30
27314;DHT22;14800;48.174;9.798;2022-07-21T13:22:46;29.80;46.70
27314;DHT22;14800;48.174;9.798;2022-07-21T13:25:12;29.80;47.00
27314;DHT22;14800;48.174;9.798;2022-07-21T13:27:38;29.80;47.40
27314;DHT22;14800;48.174;9.798;2022-07-21T13:30:06;29.80;46.70
27314;DHT22;14800;48.174;9.798;2022-07-21T13:32:36;29.80;46.50
27314;DHT22;14800;48.174;9.798;2022-07-21T13:35:08;29.80;46.10
27314;DHT22;14800;48.174;9.798;2022-07-21T13:37:33;29.80;46.10
27314;DHT22;14800;48.174;9.798;2022-07-21T13:39:59;29.80;46.60
27314;DHT22;14800;48.174;9.798;2022-07-21T13:42:25;29.80;46.70
27314;DHT22;14800;48.174;9.798;2022-07-21T13:44:50;29.80;47.00
27314;DHT22;14800;48.174;9.798;2022-07-21T13:47:16;29.70;47.00
27314;DHT22;14800;48.174;9.798;2022-07-21T13:49:41;29.80;46.40
27314;DHT22;14800;48.174;9.798;2022-07-21T13:52:07;29.80;46.30
27314;DHT22;14800;48.174;9.798;2022-07-21T13:54:33;29.80;45.70
27314;DHT22;14800;48.174;9.798;2022-07-21T13:56:59;29.70;45.70
27314;DHT22;14800;48.174;9.798;2022-07-21T13:59:26;29.70;45.30
27314;DHT22;14800;48.174;9.798;2022-07-21T14:01:51;29.70;45.40
27314;DHT22;14800;48.174;9.798;2022-07-21T14:04:17;29.70;46.00
27314;DHT22;14800;48.174;9.798;2022-07-21T14:06:43;29.70;45.90
27314;DHT22;14800;48.174;9.798;2022-07-21T14:09:13;29.70;46.00
27314;DHT22;14800;48.174;9.798;2022-07-21T14:11:39;29.70;46.00
27314;DHT22;14800;48.174;9.798;2022-07-21T14:14:04;29.80;45.50
27314;DHT22;14800;48.174;9.798;2022-07-21T14:16:30;29.80;45.70
27314;DHT22;14800;48.174;9.798;2022-07-21T14:18:55;29.80;45.70
27314;DHT22;14800;48.174;9.798;2022-07-21T14:21:21;30.00;45.50
27314;DHT22;14800;48.174;9.798;2022-07-21T14:23:47;30.00;45.50
27314;DHT22;14800;48.174;9.798;2022-07-21T14:26:12;30.10;45.10
27314;DHT22;14800;48.174;9.798;2022-07-21T14:28:38;30.10;45.30
27314;DHT22;14800;48.174;9.798;2022-07-21T14:31:04;30.30;44.80
27314;DHT22;14800;48.174;9.798;2022-07-21T14:33:30;30.30;44.60
27314;DHT22;14800;48.174;9.798;2022-07-21T14:35:56;30.40;44.40
27314;DHT22;14800;48.174;9.798;2022-07-21T14:38:22;30.50;43.70
27314;DHT22;14800;48.174;9.798;2022-07-21T14:40:47;30.50;43.60
27314;DHT22;14800;48.174;9.798;2022-07-21T14:43:13;30.60;43.70
27314;DHT22;14800;48.174;9.798;2022-07-21T14:45:39;30.60;43.70
27314;DHT22;14800;48.174;9.798;2022-07-21T14:48:04;30.60;43.80
27314;DHT22;14800;48.174;9.798;2022-07-21T14:50:33;30.60;43.70
27314;DHT22;14800;48.174;9.798;2022-07-21T14:52:59;30.60;43.10
27314;DHT22;14800;48.174;9.798;2022-07-21T14:55:25;30.60;43.70
27314;DHT22;14800;48.174;9.798;2022-07-21T14:57:52;30.70;43.60
27314;DHT22;14800;48.174;9.798;2022-07-21T15:00:18;30.60;43.00
27314;DHT22;14800;48.174;9.798;2022-07-21T15:02:44;30.60;43.00
27314;DHT22;14800;48.174;9.798;2022-07-21T15:05:10;30.60;42.80
27314;DHT22;14800;48.174;9.798;2022-07-21T15:07:36;30.50;43.00
27314;DHT22;14800;48.174;9.798;2022-07-21T15:10:02;30.50;42.50
27314;DHT22;14800;48.174;9.798;2022-07-21T15:12:28;30.30;42.40
27314;DHT22;14800;48.174;9.798;2022-07-21T15:14:53;30.30;42.80
27314;DHT22;14800;48.174;9.798;2022-07-21T15:17:19;30.20;43.10
27314;DHT22;14800;48.174;9.798;2022-07-21T15:19:45;30.20;43.20
27314;DHT22;14800;48.174;9.798;2022-07-21T15:22:11;30.30;43.50
27314;DHT22;14800;48.174;9.798;2022-07-21T15:24:36;30.30;43.30
27314;DHT22;14800;48.174;9.798;2022-07-21T15:27:02;30.40;43.10
27314;DHT22;14800;48.174;9.798;2022-07-21T15:29:28;30.40;42.60
27314;DHT22;14800;48.174;9.798;2022-07-21T15:31:53;30.40;42.60
27314;DHT22;14800;48.174;9.798;2022-07-21T15:34:19;30.40;42.60
27314;DHT22;14800;48.174;9.798;2022-07-21T15:36:45;30.40;42.40
27314;DHT22;14800;48.174;9.798;2022-07-21T15:39:11;30.40;42.60
27314;DHT22;14800;48.174;9.798;2022-07-21T15:41:38;30.30;42.50
27314;DHT22;14800;48.174;9.798;2022-07-21T15:44:04;30.30;42.30
27314;DHT22;14800;48.174;9.798;2022-07-21T15:46:31;30.30;42.40
27314;DHT22;14800;48.174;9.798;2022-07-21T15:48:57;30.20;42.80
27314;DHT22;14800;48.174;9.798;2022-07-21T15:51:23;30.10;43.00
27314;DHT22;14800;48.174;9.798;2022-07-21T15:53:49;30.00;43.20
27314;DHT22;14800;48.174;9.798;2022-07-21T15:56:14;30.00;43.40
27314;DHT22;14800;48.174;9.798;2022-07-21T15:58:40;30.00;43.60
27314;DHT22;14800;48.174;9.798;2022-07-21T16:01:27;30.00;43.60
27314;DHT22;14800;48.174;9.798;2022-07-21T16:03:53;29.90;43.40
27314;DHT22;14800;48.174;9.798;2022-07-21T16:06:18;29.80;43.30
27314;DHT22;14800;48.174;9.798;2022-07-21T16:08:44;29.80;43.60
27314;DHT22;14800;48.174;9.798;2022-07-21T16:11:10;29.80;43.30
27314;DHT22;14800;48.174;9.798;2022-07-21T16:13:36;29.80;43.60